createdAt,value
2022-08-26T00:00:49.754Z,99153.22
2022-08-26T00:01:55.586Z,99144.25
2022-08-26T00:03:01.682Z,99142.38
2022-08-26T00:04:07.774Z,99148.00
2022-08-26T00:05:13.122Z,99149.00
2022-08-26T00:06:20.881Z,99144.47
2022-08-26T00:07:26.592Z,99144.81
2022-08-26T00:08:31.675Z,99140.63
2022-08-26T00:09:40.251Z,99149.19
2022-08-26T00:10:45.623Z,99145.66
2022-08-26T00:11:51.565Z,99144.16
2022-08-26T00:12:56.690Z,99145.22
2022-08-26T00:14:08.899Z,99154.16
2022-08-26T00:15:18.312Z,99149.94
2022-08-26T00:16:25.953Z,99099.59
2022-08-26T00:17:31.728Z,99145.56
2022-08-26T00:18:38.799Z,99147.44
2022-08-26T00:19:45.590Z,99152.00
2022-08-26T00:20:52.667Z,99148.47
2022-08-26T00:21:57.684Z,99151.38
2022-08-26T00:23:03.113Z,99146.16
2022-08-26T00:24:08.324Z,99141.56
2022-08-26T00:25:13.961Z,99141.94
2022-08-26T00:26:22.092Z,99135.88
2022-08-26T00:27:34.998Z,99139.41
2022-08-26T00:28:42.278Z,99140.84
2022-08-26T00:29:47.498Z,99137.47
2022-08-26T00:30:53.437Z,99123.59
2022-08-26T00:31:58.430Z,99137.00
2022-08-26T00:33:06.319Z,99142.63
2022-08-26T00:34:12.208Z,99141.41
2022-08-26T00:35:18.573Z,99124.28
2022-08-26T00:36:25.433Z,99149.03
2022-08-26T00:37:35.263Z,99150.44
2022-08-26T00:38:40.798Z,99144.75
2022-08-26T00:39:46.595Z,99149.69
2022-08-26T00:40:57.932Z,99146.13
2022-08-26T00:42:03.679Z,99150.03
2022-08-26T00:43:10.151Z,99140.78
2022-08-26T00:44:14.428Z,99143.50
2022-08-26T00:45:20.165Z,99148.06
2022-08-26T00:46:46.572Z,99141.19
2022-08-26T00:48:00.929Z,99146.41
2022-08-26T00:49:23.466Z,99152.84
2022-08-26T00:50:35.452Z,99147.81
2022-08-26T00:51:55.732Z,99150.50
2022-08-26T00:53:05.711Z,99149.84
2022-08-26T00:54:14.301Z,99158.97
2022-08-26T00:55:38.187Z,99161.03
2022-08-26T00:57:16.429Z,99156.28
2022-08-26T00:58:25.708Z,99160.66
2022-08-26T00:59:33.387Z,99153.13
2022-08-26T01:00:38.549Z,99155.16
2022-08-26T01:01:46.316Z,99164.28
2022-08-26T01:02:56.564Z,99144.78
2022-08-26T01:04:05.260Z,99161.78
2022-08-26T01:05:12.520Z,99160.09
2022-08-26T01:06:17.259Z,99158.03
2022-08-26T01:07:25.745Z,99169.69
2022-08-26T01:08:31.793Z,99164.47
2022-08-26T01:09:38.658Z,99156.56
2022-08-26T01:10:45.752Z,99160.09
2022-08-26T01:11:55.884Z,99157.78
2022-08-26T01:13:14.389Z,99156.06
2022-08-26T01:14:23.257Z,99159.81
2022-08-26T01:15:41.199Z,99159.53
2022-08-26T01:16:52.358Z,99149.91
2022-08-26T01:18:01.724Z,99164.94
2022-08-26T01:19:32.363Z,99167.66
2022-08-26T01:21:20.302Z,99155.50
2022-08-26T01:22:37.910Z,99149.34
2022-08-26T01:23:49.721Z,99150.81
2022-08-26T01:24:55.538Z,99147.09
2022-08-26T01:26:19.906Z,99158.28
2022-08-26T01:27:25.589Z,99159.31
2022-08-26T01:28:35.690Z,99155.09
2022-08-26T01:29:46.135Z,99157.16
2022-08-26T01:30:55.617Z,99149.41
2022-08-26T01:32:00.246Z,99160.50
2022-08-26T01:33:11.700Z,99156.31
2022-08-26T01:34:32.862Z,99131.75
2022-08-26T01:35:38.814Z,99154.63
2022-08-26T01:36:50.632Z,99153.81
2022-08-26T01:37:57.896Z,99152.13
2022-08-26T01:39:05.734Z,99150.59
2022-08-26T01:40:25.373Z,99147.44
2022-08-26T01:41:29.693Z,99159.09
2022-08-26T01:42:37.833Z,99155.75
2022-08-26T01:43:48.384Z,99158.44
2022-08-26T01:45:19.182Z,99149.84
2022-08-26T01:46:29.919Z,99151.72
2022-08-26T01:47:38.406Z,99146.69
2022-08-26T01:48:46.116Z,99163.91
2022-08-26T01:49:56.636Z,99151.41
2022-08-26T01:51:03.901Z,99154.09
2022-08-26T01:52:18.655Z,99140.34
2022-08-26T01:53:27.550Z,99155.09
2022-08-26T01:54:33.823Z,99154.25
2022-08-26T01:55:42.167Z,99156.13
2022-08-26T01:56:49.708Z,99150.06
2022-08-26T01:57:57.620Z,99155.81
2022-08-26T01:59:09.439Z,99152.47
2022-08-26T02:00:17.784Z,99148.94
2022-08-26T02:01:28.988Z,99152.16
2022-08-26T02:02:35.061Z,99152.00
2022-08-26T02:04:24.928Z,99148.28
2022-08-26T02:05:30.435Z,99154.53
2022-08-26T02:06:39.127Z,99131.81
2022-08-26T02:07:48.508Z,99154.41
2022-08-26T02:09:00.238Z,99155.88
2022-08-26T02:10:07.348Z,99148.16
2022-08-26T02:11:14.754Z,99152.91
2022-08-26T02:12:27.048Z,99150.03
2022-08-26T02:13:35.525Z,99150.19
2022-08-26T02:14:51.219Z,99153.06
2022-08-26T02:15:57.372Z,99154.94
2022-08-26T02:17:04.036Z,99150.34
2022-08-26T02:18:14.833Z,99149.53
2022-08-26T02:19:26.865Z,99151.38
2022-08-26T02:20:31.914Z,99144.13
2022-08-26T02:21:38.225Z,99155.75
2022-08-26T02:22:48.362Z,99147.84
2022-08-26T02:23:56.420Z,99143.16
2022-08-26T02:25:22.685Z,99152.41
2022-08-26T02:26:28.820Z,99140.94
2022-08-26T02:27:37.285Z,99147.38
2022-08-26T02:28:52.608Z,99144.19
2022-08-26T02:30:07.783Z,99147.38
2022-08-26T02:31:13.401Z,99154.97
2022-08-26T02:32:18.849Z,99150.47
2022-08-26T02:33:23.371Z,99145.59
2022-08-26T02:34:33.594Z,99146.81
2022-08-26T02:35:40.382Z,99151.19
2022-08-26T02:36:46.401Z,99155.09
2022-08-26T02:37:53.835Z,99145.13
2022-08-26T02:39:00.183Z,99143.47
2022-08-26T02:40:10.256Z,99146.16
2022-08-26T02:41:15.240Z,99145.13
2022-08-26T02:42:23.147Z,99141.28
2022-08-26T02:43:31.450Z,99147.53
2022-08-26T02:44:40.117Z,99142.31
2022-08-26T02:45:46.367Z,99142.97
2022-08-26T02:46:55.246Z,99148.22
2022-08-26T02:48:13.442Z,99142.97
2022-08-26T02:49:20.770Z,99145.66
2022-08-26T02:50:28.584Z,99139.44
2022-08-26T02:51:34.967Z,99146.69
2022-08-26T02:52:42.290Z,99139.59
2022-08-26T02:53:49.433Z,99137.94
2022-08-26T02:54:55.541Z,99143.00
2022-08-26T02:56:01.436Z,99139.28
2022-08-26T02:57:06.744Z,99133.59
2022-08-26T02:58:12.392Z,99143.19
2022-08-26T02:59:18.009Z,99138.63
2022-08-26T03:00:26.553Z,99138.16
2022-08-26T03:01:36.573Z,99138.63
2022-08-26T03:02:41.615Z,99137.63
2022-08-26T03:03:47.966Z,99139.28
2022-08-26T03:04:57.897Z,99144.03
2022-08-26T03:06:07.429Z,99135.63
2022-08-26T03:07:13.762Z,99140.03
2022-08-26T03:08:18.588Z,99133.94
2022-08-26T03:09:25.756Z,99140.19
2022-08-26T03:10:32.129Z,99131.44
2022-08-26T03:11:38.795Z,99139.34
2022-08-26T03:12:47.457Z,99131.94
2022-08-26T03:13:54.680Z,99133.34
2022-08-26T03:14:59.864Z,99133.34
2022-08-26T03:16:07.362Z,99129.63
2022-08-26T03:17:12.322Z,99137.53
2022-08-26T03:18:16.630Z,99132.78
2022-08-26T03:19:24.926Z,99129.63
2022-08-26T03:20:30.361Z,99137.34
2022-08-26T03:21:37.366Z,99136.22
2022-08-26T03:22:43.478Z,99136.22
2022-08-26T03:23:55.015Z,99134.00
2022-08-26T03:25:11.210Z,99135.69
2022-08-26T03:26:18.623Z,99137.72
2022-08-26T03:27:23.555Z,99137.91
2022-08-26T03:28:35.428Z,99135.56
2022-08-26T03:29:58.893Z,99137.06
2022-08-26T03:31:04.048Z,99132.19
2022-08-26T03:32:11.835Z,99132.38
2022-08-26T03:33:17.758Z,99129.69
2022-08-26T03:34:26.470Z,99129.69
2022-08-26T03:35:35.379Z,99136.75
2022-08-26T03:36:41.609Z,99134.06
2022-08-26T03:37:46.280Z,99129.50
2022-08-26T03:38:52.802Z,99128.47
2022-08-26T03:39:58.065Z,99129.50
2022-08-26T03:41:02.893Z,99132.00
2022-08-26T03:42:08.295Z,99125.47
2022-08-26T03:43:17.416Z,99127.63
2022-08-26T03:44:22.846Z,99134.72
2022-08-26T03:45:30.122Z,99128.66
2022-08-26T03:46:35.930Z,99126.63
2022-08-26T03:47:41.620Z,99125.31
2022-08-26T03:48:46.760Z,99125.97
2022-08-26T03:49:51.913Z,99132.00
2022-08-26T03:50:57.494Z,99129.31
2022-08-26T03:52:03.960Z,99128.84
2022-08-26T03:53:12.774Z,99129.00
2022-08-26T03:54:18.943Z,99123.97
2022-08-26T03:55:33.676Z,99131.22
2022-08-26T03:56:39.045Z,99143.69
2022-08-26T03:57:45.778Z,99131.22
2022-08-26T03:58:51.248Z,99141.16
2022-08-26T03:59:55.730Z,99134.94
2022-08-26T04:01:01.206Z,99135.78
2022-08-26T04:02:11.367Z,99133.72
2022-08-26T04:03:36.760Z,99138.09
2022-08-26T04:04:41.947Z,99140.09
2022-08-26T04:05:47.005Z,99137.41
2022-08-26T04:06:59.507Z,99138.44
2022-08-26T04:08:05.882Z,99141.78
2022-08-26T04:09:18.569Z,99140.94
2022-08-26T04:10:28.417Z,99137.06
2022-08-26T04:11:39.702Z,99136.75
2022-08-26T04:12:46.540Z,99134.38
2022-08-26T04:13:52.452Z,99137.72
2022-08-26T04:14:58.716Z,99134.00
2022-08-26T04:16:04.659Z,99135.69
2022-08-26T04:17:09.779Z,99138.38
2022-08-26T04:18:14.656Z,99132.00
2022-08-26T04:19:21.257Z,99138.38
2022-08-26T04:20:27.969Z,99132.84
2022-08-26T04:21:34.089Z,99130.00
2022-08-26T04:22:39.998Z,99145.16
2022-08-26T04:23:47.668Z,99129.81
2022-08-26T04:24:54.465Z,99140.41
2022-08-26T04:26:02.586Z,99128.78
2022-08-26T04:27:08.428Z,99139.06
2022-08-26T04:28:14.606Z,99139.06
2022-08-26T04:29:27.472Z,99142.59
2022-08-26T04:30:33.006Z,99142.41
2022-08-26T04:31:40.162Z,99137.84
2022-08-26T04:32:46.985Z,99143.06
2022-08-26T04:33:51.692Z,99139.16
2022-08-26T04:34:58.452Z,99142.53
2022-08-26T04:36:07.687Z,99145.25
2022-08-26T04:37:13.622Z,99146.75
2022-08-26T04:38:20.473Z,99142.00
2022-08-26T04:39:28.500Z,99141.00
2022-08-26T04:40:33.246Z,99136.25
2022-08-26T04:41:40.615Z,99135.41
2022-08-26T04:42:48.046Z,99139.59
2022-08-26T04:43:54.330Z,99135.22
2022-08-26T04:45:05.757Z,99130.84
2022-08-26T04:46:22.683Z,99132.16
2022-08-26T04:47:32.237Z,99135.03
2022-08-26T04:48:39.740Z,99120.88
2022-08-26T04:49:46.165Z,99131.81
2022-08-26T04:50:53.870Z,99121.84
2022-08-26T04:52:00.551Z,99127.91
2022-08-26T04:53:05.469Z,99127.72
2022-08-26T04:54:14.585Z,99123.16
2022-08-26T04:55:25.218Z,99119.47
2022-08-26T04:56:50.412Z,99125.72
2022-08-26T04:57:58.456Z,99127.38
2022-08-26T04:59:16.797Z,99128.69
2022-08-26T05:00:25.173Z,99136.44
2022-08-26T05:01:34.184Z,99115.75
2022-08-26T05:02:45.768Z,99138.44
2022-08-26T05:03:52.703Z,99128.63
2022-08-26T05:04:59.207Z,99133.69
2022-08-26T05:06:09.040Z,99123.53
2022-08-26T05:07:14.471Z,99108.41
2022-08-26T05:08:25.233Z,99111.56
2022-08-26T05:09:31.952Z,99129.88
2022-08-26T05:10:50.139Z,99125.69
2022-08-26T05:11:55.349Z,99130.59
2022-08-26T05:13:04.732Z,99126.03
2022-08-26T05:14:17.641Z,99132.28
2022-08-26T05:15:24.771Z,99128.41
2022-08-26T05:16:31.843Z,99123.28
2022-08-26T05:17:42.081Z,99132.06
2022-08-26T05:18:48.276Z,99133.25
2022-08-26T05:19:54.902Z,99127.50
2022-08-26T05:21:06.180Z,99122.94
2022-08-26T05:22:13.393Z,99140.81
2022-08-26T05:23:23.151Z,99130.00
2022-08-26T05:24:28.470Z,99120.41
2022-08-26T05:25:43.617Z,99137.88
2022-08-26T05:26:50.052Z,99138.72
2022-08-26T05:27:56.577Z,99141.09
2022-08-26T05:29:02.843Z,99133.28
2022-08-26T05:30:11.049Z,99138.31
2022-08-26T05:31:24.455Z,99130.75
2022-08-26T05:32:31.591Z,99130.53
2022-08-26T05:33:37.119Z,99130.44
2022-08-26T05:34:47.636Z,99126.06
2022-08-26T05:35:56.138Z,99130.34
2022-08-26T05:37:03.166Z,99130.06
2022-08-26T05:38:19.146Z,99126.28
2022-08-26T05:39:25.340Z,99125.44
2022-08-26T05:40:35.984Z,99127.66
2022-08-26T05:41:44.847Z,99126.50
2022-08-26T05:42:50.807Z,99127.91
2022-08-26T05:44:00.467Z,99124.22
2022-08-26T05:45:05.691Z,99126.19
2022-08-26T05:46:14.419Z,99122.31
2022-08-26T05:47:20.502Z,99125.75
2022-08-26T05:48:25.547Z,99129.19
2022-08-26T05:49:30.368Z,99103.72
2022-08-26T05:50:55.085Z,99132.50
2022-08-26T05:52:00.180Z,99120.69
2022-08-26T05:53:04.872Z,99128.47
2022-08-26T05:54:10.727Z,99129.16
2022-08-26T05:55:16.688Z,99122.38
2022-08-26T05:56:27.981Z,99135.25
2022-08-26T05:57:39.964Z,99122.78
2022-08-26T05:58:48.350Z,99122.03
2022-08-26T05:59:53.677Z,99120.66
2022-08-26T06:01:29.093Z,99115.94
2022-08-26T06:02:35.725Z,99114.78
2022-08-26T06:03:49.083Z,99115.69
2022-08-26T06:04:56.713Z,99123.47
2022-08-26T06:06:14.927Z,99120.34
2022-08-26T06:07:51.285Z,99120.00
2022-08-26T06:09:02.311Z,99120.88
2022-08-26T06:10:30.866Z,99123.63
2022-08-26T06:11:36.464Z,99122.81
2022-08-26T06:12:42.279Z,99123.88
2022-08-26T06:13:49.642Z,99121.97
2022-08-26T06:14:55.534Z,99124.91
2022-08-26T06:16:06.491Z,99120.50
2022-08-26T06:17:12.076Z,99126.53
2022-08-26T06:18:22.783Z,99117.28
2022-08-26T06:19:33.078Z,99114.94
2022-08-26T06:20:56.889Z,99118.94
2022-08-26T06:22:23.735Z,99120.31
2022-08-26T06:23:49.470Z,99107.03
2022-08-26T06:25:13.104Z,99122.22
2022-08-26T06:26:19.225Z,99120.88
2022-08-26T06:27:32.800Z,99109.72
2022-08-26T06:28:38.814Z,99115.25
2022-08-26T06:29:48.254Z,99114.44
2022-08-26T06:31:01.009Z,99112.06
2022-08-26T06:32:12.151Z,99111.28
2022-08-26T06:33:18.249Z,99114.16
2022-08-26T06:34:29.946Z,99112.09
2022-08-26T06:35:47.440Z,99115.91
2022-08-26T06:36:58.188Z,99109.19
2022-08-26T06:38:06.451Z,99102.66
2022-08-26T06:39:16.990Z,99105.16
2022-08-26T06:40:24.114Z,99109.19
2022-08-26T06:41:32.597Z,99101.06
2022-08-26T06:42:39.506Z,99097.44
2022-08-26T06:43:47.987Z,99115.16
2022-08-26T06:44:57.278Z,99124.09
2022-08-26T06:46:12.175Z,99104.16
2022-08-26T06:47:18.084Z,99112.41
2022-08-26T06:48:27.774Z,99113.66
2022-08-26T06:49:33.911Z,99110.38
2022-08-26T06:50:41.243Z,99110.31
2022-08-26T06:51:47.392Z,99111.34
2022-08-26T06:52:55.074Z,99123.44
2022-08-26T06:54:07.352Z,99110.19
2022-08-26T06:55:14.563Z,99117.47
2022-08-26T06:56:26.337Z,99119.69
2022-08-26T06:57:35.343Z,99115.75
2022-08-26T06:58:47.333Z,99122.38
2022-08-26T06:59:52.661Z,99114.75
2022-08-26T07:01:03.132Z,99106.63
2022-08-26T07:02:13.798Z,99112.41
2022-08-26T07:03:18.523Z,99122.31
2022-08-26T07:04:28.154Z,99115.56
2022-08-26T07:05:36.787Z,99110.56
2022-08-26T07:06:47.530Z,99119.13
2022-08-26T07:07:54.442Z,99105.97
2022-08-26T07:09:06.397Z,99112.72
2022-08-26T07:10:16.089Z,99113.34
2022-08-26T07:11:22.855Z,99113.38
2022-08-26T07:12:29.284Z,99106.19
2022-08-26T07:13:37.976Z,99113.44
2022-08-26T07:14:47.538Z,99112.59
2022-08-26T07:15:53.807Z,99114.03
2022-08-26T07:17:04.195Z,99103.94
2022-08-26T07:18:11.162Z,99108.50
2022-08-26T07:19:28.541Z,99107.44
2022-08-26T07:20:42.333Z,99108.13
2022-08-26T07:21:50.501Z,99110.28
2022-08-26T07:23:00.090Z,99111.16
2022-08-26T07:24:06.839Z,99103.31
2022-08-26T07:25:11.781Z,99106.59
2022-08-26T07:26:29.831Z,99108.41
2022-08-26T07:27:36.963Z,99111.97
2022-08-26T07:28:42.202Z,99105.84
2022-08-26T07:29:47.170Z,99101.59
2022-08-26T07:30:51.984Z,99103.34
2022-08-26T07:32:00.245Z,99098.13
2022-08-26T07:33:04.764Z,99100.09
2022-08-26T07:34:14.132Z,99101.75
2022-08-26T07:35:18.844Z,99101.06
2022-08-26T07:36:25.007Z,99099.69
2022-08-26T07:37:30.485Z,99099.16
2022-08-26T07:38:44.335Z,99097.00
2022-08-26T07:39:49.189Z,99094.34
2022-08-26T07:40:53.869Z,99092.66
2022-08-26T07:42:01.833Z,99074.16
2022-08-26T07:43:12.821Z,99081.78
2022-08-26T07:44:18.912Z,99092.97
2022-08-26T07:45:24.434Z,99095.28
2022-08-26T07:46:30.141Z,99088.19
2022-08-26T07:47:35.332Z,99092.19
2022-08-26T07:48:40.475Z,99091.03
2022-08-26T07:49:52.793Z,99096.72
2022-08-26T07:51:05.184Z,99097.69
2022-08-26T07:52:09.657Z,99094.16
2022-08-26T07:53:16.518Z,99083.22
2022-08-26T07:54:24.622Z,99099.97
2022-08-26T07:55:32.039Z,99093.09
2022-08-26T07:56:38.657Z,99089.19
2022-08-26T07:57:45.277Z,99090.88
2022-08-26T07:58:53.431Z,99083.53
2022-08-26T07:59:59.829Z,99090.78
2022-08-26T08:01:06.144Z,99091.13
2022-08-26T08:02:12.136Z,99090.47
2022-08-26T08:03:16.957Z,99094.66
2022-08-26T08:04:26.671Z,99089.50
2022-08-26T08:05:33.906Z,99092.34
2022-08-26T08:06:39.077Z,99090.72
2022-08-26T08:07:47.700Z,99084.59
2022-08-26T08:08:59.467Z,99094.66
2022-08-26T08:10:09.780Z,99096.84
2022-08-26T08:11:22.421Z,99081.00
2022-08-26T08:12:27.546Z,99086.00
2022-08-26T08:13:33.092Z,99087.88
2022-08-26T08:14:41.463Z,99087.97
2022-08-26T08:15:48.199Z,99086.69
2022-08-26T08:16:56.005Z,99087.50
2022-08-26T08:18:15.717Z,99079.63
2022-08-26T08:19:22.894Z,99072.81
2022-08-26T08:20:32.230Z,99078.69
2022-08-26T08:21:39.803Z,99074.22
2022-08-26T08:22:44.587Z,99085.88
2022-08-26T08:23:50.422Z,99075.59
2022-08-26T08:24:58.052Z,99079.56
2022-08-26T08:26:21.548Z,99081.31
2022-08-26T08:27:27.710Z,99085.28
2022-08-26T08:28:32.695Z,99077.31
2022-08-26T08:29:38.857Z,99070.66
2022-08-26T08:30:44.592Z,99076.19
2022-08-26T08:31:58.757Z,99076.59
2022-08-26T08:33:05.625Z,99074.41
2022-08-26T08:34:12.356Z,99070.91
2022-08-26T08:35:24.555Z,99066.72
2022-08-26T08:36:35.904Z,99059.78
2022-08-26T08:37:44.766Z,99060.56
2022-08-26T08:38:55.085Z,99064.31
2022-08-26T08:40:02.275Z,99065.88
2022-08-26T08:41:34.820Z,99069.22
2022-08-26T08:42:56.271Z,99058.53
2022-08-26T08:44:05.663Z,99062.28
2022-08-26T08:45:36.992Z,99067.28
2022-08-26T08:46:45.123Z,99064.94
2022-08-26T08:48:01.328Z,99062.28
2022-08-26T08:49:07.157Z,99059.78
2022-08-26T08:50:36.709Z,99057.09
2022-08-26T08:51:59.599Z,99054.56
2022-08-26T08:53:44.931Z,99055.56
2022-08-26T08:54:56.074Z,99055.78
2022-08-26T08:56:39.005Z,99054.06
2022-08-26T08:58:17.279Z,99058.69
2022-08-26T08:59:32.129Z,99058.41
2022-08-26T09:01:05.527Z,99053.66
2022-08-26T09:02:37.925Z,99052.03
2022-08-26T09:04:13.410Z,99046.88
2022-08-26T09:05:34.430Z,99045.06
2022-08-26T09:06:41.078Z,99044.16
2022-08-26T09:08:11.933Z,99050.41
2022-08-26T09:09:31.287Z,99040.09
2022-08-26T09:10:52.341Z,99047.41
2022-08-26T09:11:59.621Z,99042.59
2022-08-26T09:13:25.167Z,99048.09
2022-08-26T09:14:36.240Z,99047.16
2022-08-26T09:16:30.423Z,99045.81
2022-08-26T09:18:15.432Z,99045.06
2022-08-26T09:19:49.368Z,99035.66
2022-08-26T09:21:11.122Z,99042.16
2022-08-26T09:22:38.351Z,99044.00
2022-08-26T09:23:49.341Z,99039.41
2022-08-26T09:24:55.770Z,99041.38
2022-08-26T09:26:29.252Z,99044.22
2022-08-26T09:27:45.512Z,99030.94
2022-08-26T09:29:01.060Z,99032.09
2022-08-26T09:30:07.358Z,99000.97
2022-08-26T09:31:31.020Z,99033.56
2022-08-26T09:32:36.172Z,99011.56
2022-08-26T09:33:41.990Z,99045.63
2022-08-26T09:35:01.590Z,99033.22
2022-08-26T09:36:39.491Z,99040.81
2022-08-26T09:38:59.071Z,99000.00
2022-08-26T09:40:23.018Z,98978.03
2022-08-26T09:41:34.497Z,99031.91
2022-08-26T09:42:40.148Z,99028.34
2022-08-26T09:44:14.719Z,99004.28
2022-08-26T09:45:31.500Z,99016.06
2022-08-26T09:46:36.900Z,99025.56
2022-08-26T09:47:57.785Z,99024.84
2022-08-26T09:49:40.281Z,99019.09
2022-08-26T09:51:03.736Z,98995.59
2022-08-26T09:52:26.190Z,99008.47
2022-08-26T09:53:50.423Z,99012.84
2022-08-26T09:55:10.351Z,99022.78
2022-08-26T09:56:32.368Z,98928.25
2022-08-26T09:57:54.265Z,99014.75
2022-08-26T09:59:00.157Z,99010.25
2022-08-26T10:00:23.635Z,99007.28
2022-08-26T10:01:42.717Z,99007.13
2022-08-26T10:02:47.857Z,99008.75
2022-08-26T10:04:01.725Z,99008.56
2022-08-26T10:05:16.404Z,98994.75
2022-08-26T10:06:28.526Z,98991.16
2022-08-26T10:07:50.778Z,99010.69
2022-08-26T10:09:08.981Z,98990.00
2022-08-26T10:10:26.510Z,99010.94
2022-08-26T10:12:12.204Z,99002.94
2022-08-26T10:13:28.112Z,99008.94
2022-08-26T10:16:23.454Z,99009.50
2022-08-26T10:17:37.719Z,98995.19
2022-08-26T10:18:59.460Z,99006.50
2022-08-26T10:20:23.491Z,99002.88
2022-08-26T10:21:54.086Z,99002.88
2022-08-26T10:23:17.168Z,98996.72
2022-08-26T10:24:44.412Z,99001.53
2022-08-26T10:26:26.910Z,98996.81
2022-08-26T10:27:53.562Z,98996.34
2022-08-26T10:29:28.017Z,98986.81
2022-08-26T10:30:43.128Z,98994.66
2022-08-26T10:32:03.421Z,98969.44
2022-08-26T10:33:18.100Z,98986.00
2022-08-26T10:34:22.572Z,98982.31
2022-08-26T10:35:29.352Z,98988.72
2022-08-26T10:38:24.114Z,98974.41
2022-08-26T10:39:43.914Z,98974.41
2022-08-26T10:41:13.130Z,98983.53
2022-08-26T10:43:00.482Z,98982.84
2022-08-26T10:44:10.762Z,98980.09
2022-08-26T10:45:25.433Z,98974.53
2022-08-26T10:46:52.859Z,98983.69
2022-08-26T10:48:07.190Z,98966.22
2022-08-26T10:49:16.324Z,98983.50
2022-08-26T10:50:26.473Z,98970.28
2022-08-26T10:51:38.753Z,98976.09
2022-08-26T10:53:01.738Z,98975.50
2022-08-26T10:54:17.080Z,98949.09
2022-08-26T10:56:06.212Z,98962.56
2022-08-26T10:57:49.697Z,98967.53
2022-08-26T10:59:39.945Z,98965.06
2022-08-26T11:01:15.105Z,98975.31
2022-08-26T11:02:33.224Z,98979.13
2022-08-26T11:03:57.877Z,98975.78
2022-08-26T11:05:19.893Z,98938.69
2022-08-26T11:06:31.557Z,98962.31
2022-08-26T11:07:46.426Z,98965.31
2022-08-26T11:09:00.104Z,98959.84
2022-08-26T11:10:24.255Z,98963.16
2022-08-26T11:11:42.818Z,98965.75
2022-08-26T11:13:03.898Z,98918.56
2022-08-26T11:14:10.077Z,98937.22
2022-08-26T11:15:20.195Z,98965.50
2022-08-26T11:16:53.692Z,98961.72
2022-08-26T11:18:08.071Z,98963.59
2022-08-26T11:20:00.342Z,98964.56
2022-08-26T11:21:50.695Z,98962.19
2022-08-26T11:23:00.303Z,98960.97
2022-08-26T11:24:54.229Z,98933.53
2022-08-26T11:25:59.645Z,98957.44
2022-08-26T11:27:03.847Z,98950.28
2022-08-26T11:28:44.166Z,98926.91
2022-08-26T11:30:11.270Z,98949.97
2022-08-26T11:31:51.190Z,98947.47
2022-08-26T11:32:59.544Z,98935.69
2022-08-26T11:34:13.252Z,98947.22
2022-08-26T11:35:20.351Z,98940.91
2022-08-26T11:36:59.238Z,98947.22
2022-08-26T11:38:25.906Z,98928.19
2022-08-26T11:39:54.744Z,98945.91
2022-08-26T11:41:12.195Z,98932.72
2022-08-26T11:42:45.200Z,98922.59
2022-08-26T11:43:52.422Z,98929.84
2022-08-26T11:45:41.619Z,98925.28
2022-08-26T11:47:01.865Z,98923.84
2022-08-26T11:48:33.623Z,98920.66
2022-08-26T11:49:38.458Z,98912.06
2022-08-26T11:50:55.283Z,98914.13
2022-08-26T11:52:22.434Z,98921.47
2022-08-26T11:53:27.299Z,98904.69
2022-08-26T11:54:35.484Z,98919.06
2022-08-26T11:55:45.135Z,98920.16
2022-08-26T11:56:53.449Z,98921.56
2022-08-26T11:58:01.260Z,98901.63
2022-08-26T11:59:13.319Z,98917.91
2022-08-26T12:00:39.538Z,98922.16
2022-08-26T12:01:54.787Z,98895.41
2022-08-26T12:03:07.296Z,98891.81
2022-08-26T12:04:29.534Z,98866.16
2022-08-26T12:05:43.959Z,98908.69
2022-08-26T12:06:53.405Z,98910.59
2022-08-26T12:08:08.131Z,98877.34
2022-08-26T12:09:37.244Z,98900.00
2022-08-26T12:11:35.022Z,98875.25
2022-08-26T12:12:42.824Z,98880.38
2022-08-26T12:14:17.659Z,98867.53
2022-08-26T12:15:40.192Z,98892.13
2022-08-26T12:16:44.607Z,98830.22
2022-08-26T12:17:53.517Z,98876.75
2022-08-26T12:18:59.977Z,98890.63
2022-08-26T12:20:06.643Z,98875.41
2022-08-26T12:21:22.276Z,98832.41
2022-08-26T12:22:39.212Z,98892.13
2022-08-26T12:23:54.758Z,98855.25
2022-08-26T12:25:13.503Z,98885.25
2022-08-26T12:26:37.064Z,98881.00
2022-08-26T12:27:49.583Z,98890.72
2022-08-26T12:29:36.558Z,98895.44
2022-08-26T12:31:09.843Z,98882.97
2022-08-26T12:32:25.159Z,98887.16
2022-08-26T12:33:31.490Z,98890.47
2022-08-26T12:34:36.617Z,98834.06
2022-08-26T12:35:56.847Z,98875.03
2022-08-26T12:37:03.748Z,98866.38
2022-08-26T12:38:21.009Z,98853.41
2022-08-26T12:39:31.523Z,98893.31
2022-08-26T12:40:45.994Z,98881.75
2022-08-26T12:42:00.963Z,98897.97
2022-08-26T12:43:07.515Z,98869.78
2022-08-26T12:44:37.891Z,98861.94
2022-08-26T12:46:00.009Z,98873.16
2022-08-26T12:47:20.457Z,98874.72
2022-08-26T12:48:40.808Z,98846.38
2022-08-26T12:49:45.462Z,98840.63
2022-08-26T12:50:52.406Z,98850.72
2022-08-26T12:51:56.406Z,98832.31
2022-08-26T12:53:11.336Z,98863.50
2022-08-26T12:54:17.102Z,98849.13
2022-08-26T12:55:42.788Z,98869.97
2022-08-26T12:56:47.279Z,98873.88
2022-08-26T12:58:23.906Z,98869.34
2022-08-26T12:59:28.232Z,98875.13
2022-08-26T13:00:44.886Z,98877.03
2022-08-26T13:01:50.699Z,98863.59
2022-08-26T13:03:00.292Z,98865.00
2022-08-26T13:04:07.474Z,98871.31
2022-08-26T13:05:34.401Z,98873.22
2022-08-26T13:06:39.266Z,98868.25
2022-08-26T13:08:25.245Z,98855.88
2022-08-26T13:09:31.877Z,98839.91
2022-08-26T13:10:41.707Z,98854.13
2022-08-26T13:11:49.483Z,98859.28
2022-08-26T13:12:55.031Z,98864.00
2022-08-26T13:14:23.823Z,98856.34
2022-08-26T13:15:32.818Z,98844.56
2022-08-26T13:16:46.451Z,98859.47
2022-08-26T13:17:53.590Z,98852.34
2022-08-26T13:19:10.068Z,98849.84
2022-08-26T13:20:22.311Z,98851.97
2022-08-26T13:21:41.632Z,98860.69
2022-08-26T13:22:46.135Z,98848.66
2022-08-26T13:24:13.718Z,98851.63
2022-08-26T13:25:19.751Z,98854.13
2022-08-26T13:26:26.518Z,98843.16
2022-08-26T13:27:32.069Z,98845.66
2022-08-26T13:28:38.747Z,98844.81
2022-08-26T13:29:45.218Z,98838.19
2022-08-26T13:30:55.322Z,98845.59
2022-08-26T13:32:04.539Z,98849.16
2022-08-26T13:33:13.177Z,98841.50
2022-08-26T13:34:24.545Z,98844.00
2022-08-26T13:35:30.153Z,98843.72
2022-08-26T13:36:38.187Z,98846.25
2022-08-26T13:37:47.242Z,98846.72
2022-08-26T13:38:53.334Z,98854.47
2022-08-26T13:40:02.663Z,98852.34
2022-08-26T13:41:10.267Z,98839.34
2022-08-26T13:42:19.383Z,98844.13
2022-08-26T13:43:26.046Z,98839.47
2022-08-26T13:44:30.817Z,98843.03
2022-08-26T13:45:36.914Z,98835.28
2022-08-26T13:46:43.286Z,98843.34
2022-08-26T13:47:51.270Z,98830.53
2022-08-26T13:49:00.774Z,98845.78
2022-08-26T13:50:07.429Z,98839.78
2022-08-26T13:51:20.581Z,98834.06
2022-08-26T13:52:30.874Z,98840.84
2022-08-26T13:53:45.032Z,98838.72
2022-08-26T13:54:51.417Z,98834.06
2022-08-26T13:56:02.813Z,98838.47
2022-08-26T13:57:08.316Z,98831.63
2022-08-26T13:58:17.545Z,98831.91
2022-08-26T13:59:22.570Z,98824.50
2022-08-26T14:00:34.998Z,98842.03
2022-08-26T14:01:43.690Z,98835.22
2022-08-26T14:02:49.122Z,98835.56
2022-08-26T14:03:54.698Z,98831.22
2022-08-26T14:05:00.107Z,98838.31
2022-08-26T14:06:05.917Z,98831.63
2022-08-26T14:07:22.003Z,98822.69
2022-08-26T14:08:32.339Z,98833.69
2022-08-26T14:09:38.576Z,98823.56
2022-08-26T14:10:45.086Z,98828.91
2022-08-26T14:11:54.144Z,98826.72
2022-08-26T14:13:00.197Z,98823.75
2022-08-26T14:14:06.062Z,98822.69